Time,TemperatureF,DewpointF,PressureIn,WindDirection,WindDirectionDegrees,WindSpeedMPH,WindSpeedGustMPH,Humidity,HourlyPrecipIn,Conditions,Clouds,dailyrainin,SoftwareType,DateUTC
2013-08-06 00:11:00,58.0,57.0,-100.00,NNE,30,4.0,4.0,95,0.00,,,0.00,,2013-08-06 05:11:00,
2013-08-06 00:32:00,61.0,57.0,-100.00,NNE,20,5.0,6.0,86,0.00,,,0.00,,2013-08-06 05:32:00,
2013-08-06 00:43:00,60.0,55.0,-100.00,NNE,25,4.0,5.0,86,0.00,,,0.00,,2013-08-06 05:43:00,
2013-08-06 01:11:00,59.0,55.0,-100.00,NNE,25,4.0,6.0,88,0.00,,,0.00,,2013-08-06 06:11:00,
2013-08-06 02:01:00,58.0,55.0,-100.00,ENE,75,3.0,6.0,92,0.00,,,0.00,,2013-08-06 07:01:00,
2013-08-06 02:12:00,59.0,57.0,-100.00,ENE,75,4.0,5.0,91,0.00,,,0.00,,2013-08-06 07:12:00,
2013-08-06 03:01:00,58.0,57.0,-100.00,SSE,165,3.0,3.0,95,0.00,,,0.00,,2013-08-06 08:01:00,
2013-08-06 03:11:00,58.0,57.0,-100.00,SE,145,3.0,4.0,95,0.00,,,0.00,,2013-08-06 08:11:00,
2013-08-06 04:11:00,60.0,57.0,-100.00,ESE,110,2.0,5.0,91,0.00,,,0.00,,2013-08-06 09:11:00,
2013-08-06 04:32:00,58.0,55.0,-100.00,SSE,150,4.0,6.0,92,0.00,,,0.00,,2013-08-06 09:32:00,
2013-08-06 05:11:00,60.0,57.0,-100.00,SE,135,7.0,7.0,88,0.00,,,0.00,,2013-08-06 10:11:00,
2013-08-06 06:01:00,60.0,57.0,-100.00,SSE,150,7.0,9.0,89,0.00,,,0.00,,2013-08-06 11:01:00,
2013-08-06 06:11:00,60.0,57.0,-100.00,SE,145,6.0,7.0,90,0.00,,,0.00,,2013-08-06 11:11:00,
2013-08-06 07:11:00,60.0,57.0,-100.00,SE,125,7.0,11.0,90,0.00,,,0.00,,2013-08-06 12:11:00,
2013-08-06 08:11:00,62.0,59.0,-100.00,SSE,150,14.0,17.0,87,0.00,,,0.00,,2013-08-06 13:11:00,
2013-08-06 08:32:00,62.0,59.0,-100.00,SSE,165,15.0,20.0,88,0.00,,,0.00,,2013-08-06 13:32:00,
2013-08-06 09:01:00,64.0,61.0,-100.00,SSE,150,15.0,20.0,88,0.00,,,0.00,,2013-08-06 14:01:00,
2013-08-06 09:11:00,64.0,61.0,-100.00,SSE,160,13.0,22.0,88,0.00,,,0.00,,2013-08-06 14:11:00,
2013-08-06 10:11:00,67.0,63.0,-100.00,SSE,165,14.0,18.0,84,0.00,,,0.00,,2013-08-06 15:11:00,
2013-08-06 10:33:00,70.0,64.0,-100.00,South,170,11.0,16.0,81,0.00,,,0.00,,2013-08-06 15:33:00,
2013-08-06 11:02:00,73.0,64.0,-100.00,South,190,7.0,11.0,74,0.00,,,0.00,,2013-08-06 16:02:00,
2013-08-06 11:11:00,73.0,63.0,-100.00,SW,225,6.0,12.0,71,0.00,,,0.00,,2013-08-06 16:11:00,
2013-08-06 11:32:00,74.0,63.0,-100.00,West,270,6.0,13.0,65,0.00,,,0.00,,2013-08-06 16:32:00,
2013-08-06 12:02:00,76.0,64.0,-100.00,West,260,7.0,9.0,66,0.00,,,0.00,,2013-08-06 17:02:00,
2013-08-06 12:11:00,76.0,64.0,-100.00,West,260,6.0,11.0,65,0.00,,,0.00,,2013-08-06 17:11:00,
2013-08-06 12:32:00,76.0,64.0,-100.00,SW,235,6.0,9.0,67,0.00,,,0.00,,2013-08-06 17:32:00,
2013-08-06 14:11:00,79.0,63.0,-100.00,WSW,240,11.0,17.0,56,0.00,,,0.00,,2013-08-06 19:11:00,
2013-08-06 15:11:00,80.0,66.0,-100.00,West,260,9.0,15.0,60,0.00,,,0.00,,2013-08-06 20:11:00,
2013-08-06 15:32:00,82.0,64.0,-100.00,WSW,245,12.0,16.0,54,0.00,,,0.00,,2013-08-06 20:32:00,
2013-08-06 15:44:00,80.0,64.0,-100.00,WSW,240,16.0,21.0,57,0.00,,,0.00,,2013-08-06 20:44:00,
2013-08-06 16:01:00,79.0,66.0,-100.00,WSW,245,11.0,16.0,61,0.00,,,0.00,,2013-08-06 21:01:00,
2013-08-06 16:11:00,80.0,66.0,-100.00,WSW,250,11.0,16.0,62,0.00,,,0.00,,2013-08-06 21:11:00,
2013-08-06 16:32:00,79.0,66.0,-100.00,SW,235,7.0,14.0,63,0.00,,,0.00,,2013-08-06 21:32:00,
2013-08-06 18:11:00,74.0,64.0,-100.00,ESE,110,1.0,6.0,69,0.00,,,0.00,,2013-08-06 23:11:00,
2013-08-06 18:32:00,76.0,63.0,-100.00,SSE,160,1.0,3.0,64,0.00,,,0.00,,2013-08-06 23:32:00,
2013-08-06 19:11:00,66.0,61.0,-100.00,North,350,11.0,19.0,82,0.00,,,0.00,,2013-08-07 00:11:00,
2013-08-06 19:21:00,64.0,63.0,-100.00,NW,310,11.0,17.0,91,0.00,,,0.00,,2013-08-07 00:21:00,
2013-08-06 19:32:00,64.0,61.0,-100.00,NW,325,12.0,17.0,88,0.00,,,0.00,,2013-08-07 00:32:00,
2013-08-06 19:43:00,63.0,61.0,-100.00,North,5,7.0,11.0,93,0.00,,,0.00,,2013-08-07 00:43:00,
2013-08-06 20:01:00,64.0,63.0,-100.00,NNW,330,5.0,7.0,94,0.00,,,0.00,,2013-08-07 01:01:00,
2013-08-06 20:11:00,65.0,63.0,-100.00,NW,320,6.0,9.0,91,0.00,,,0.00,,2013-08-07 01:11:00,
2013-08-06 20:21:00,65.0,63.0,-100.00,NW,320,6.0,9.0,91,0.00,,,0.00,,2013-08-07 01:21:00,
2013-08-06 20:52:00,64.0,63.0,-100.00,NNW,340,6.0,9.0,93,0.00,,,0.00,,2013-08-07 01:52:00,
2013-08-06 22:11:00,62.0,61.0,-100.00,North,-999,-999.0,-999.0,95,-99.99,,,0.00,,2013-08-07 03:11:00,
2013-08-06 22:22:00,62.0,61.0,-100.00,NNW,335,7.0,10.0,96,0.00,,,0.00,,2013-08-07 03:22:00,
2013-08-06 22:32:00,62.0,61.0,-100.00,NNW,335,7.0,10.0,96,0.00,,,0.00,,2013-08-07 03:32:00,
2013-08-06 22:43:00,61.0,61.0,-100.00,NW,320,7.0,9.0,97,0.00,,,0.00,,2013-08-07 03:43:00,
2013-08-06 23:11:00,62.0,61.0,-100.00,NW,325,7.0,9.0,97,0.00,,,0.00,,2013-08-07 04:11:00,
2013-08-06 23:21:00,61.0,61.0,-100.00,NW,315,7.0,12.0,97,0.00,,,0.00,,2013-08-07 04:21:00,
2013-08-06 23:43:00,62.0,61.0,-100.00,NW,315,7.0,11.0,98,0.00,,,0.00,,2013-08-07 04:43:00,
2013-08-06 23:52:00,62.0,61.0,-100.00,NW,325,6.0,12.0,98,0.00,,,0.00,,2013-08-07 04:52:00,